Selfridge, Michigan
Current Conditions -  °F | °C
As of 1:48 AM on Tuesday 21 Oct 2014 (Local Time) from KMTC Reporting Station
Overcast Overcast  
Wind Chill: 45°   Ceiling: 2800
Heat Index: 48°   Visibility: 10mi
Dew Point: 48°   Wind: 8mph
Humidity: 100%   Direction: 310°NW
Pressure: 29.85"   Gusts: NA
Location:  42.5826°N, 82.8345°W
Report Text: KMTC 210548Z AUTO 31007KT 10SM SCT022 BKN028 OVC055 09/09 A2985 RMK AO2 CIG 028V055 BKN V FEW
Loading
Personal Weather Stations






























Interactive Weather Map
Tropical Storm Tracking
New forecast layout! Learn more

10-Day Weather Forecast

Advertisements
Track Severe Weather on mobile